sensor_id;sensor_type;location;lat;lon;timestamp;P1;durP1;ratioP1;P2;durP2;ratioP2
9485;SDS011;4781;48.776;9.200;2022-09-28T00:01:53;1.42;;;0.85;;
9485;SDS011;4781;48.776;9.200;2022-09-28T00:04:21;1.27;;;0.75;;
9485;SDS011;4781;48.776;9.200;2022-09-28T00:06:50;4.42;;;1.07;;
9485;SDS011;4781;48.776;9.200;2022-09-28T00:09:18;1.92;;;0.88;;
9485;SDS011;4781;48.776;9.200;2022-09-28T00:11:47;1.05;;;0.62;;
9485;SDS011;4781;48.776;9.200;2022-09-28T00:14:15;1.25;;;0.60;;
9485;SDS011;4781;48.776;9.200;2022-09-28T00:16:44;2.85;;;0.70;;
9485;SDS011;4781;48.776;9.200;2022-09-28T00:19:13;3.30;;;0.80;;
9485;SDS011;4781;48.776;9.200;2022-09-28T00:21:42;1.57;;;0.57;;
9485;SDS011;4781;48.776;9.200;2022-09-28T00:24:11;1.70;;;0.72;;
9485;SDS011;4781;48.776;9.200;2022-09-28T00:26:46;1.02;;;0.57;;
9485;SDS011;4781;48.776;9.200;2022-09-28T00:29:15;1.00;;;0.72;;
9485;SDS011;4781;48.776;9.200;2022-09-28T00:31:52;0.93;;;0.62;;
9485;SDS011;4781;48.776;9.200;2022-09-28T00:34:25;2.05;;;0.70;;
9485;SDS011;4781;48.776;9.200;2022-09-28T00:36:56;0.78;;;0.55;;
9485;SDS011;4781;48.776;9.200;2022-09-28T00:39:26;1.75;;;0.70;;
9485;SDS011;4781;48.776;9.200;2022-09-28T00:41:57;1.67;;;0.80;;
9485;SDS011;4781;48.776;9.200;2022-09-28T00:50:28;1.65;;;0.82;;
9485;SDS011;4781;48.776;9.200;2022-09-28T00:52:58;1.50;;;0.90;;
9485;SDS011;4781;48.776;9.200;2022-09-28T00:55:45;1.60;;;0.80;;
9485;SDS011;4781;48.776;9.200;2022-09-28T00:58:17;1.32;;;0.90;;
9485;SDS011;4781;48.776;9.200;2022-09-28T01:00:49;2.42;;;1.30;;
9485;SDS011;4781;48.776;9.200;2022-09-28T01:03:21;3.90;;;0.70;;
9485;SDS011;4781;48.776;9.200;2022-09-28T01:05:49;1.12;;;0.80;;
9485;SDS011;4781;48.776;9.200;2022-09-28T01:08:20;0.93;;;0.70;;
9485;SDS011;4781;48.776;9.200;2022-09-28T01:10:50;2.00;;;0.82;;
9485;SDS011;4781;48.776;9.200;2022-09-28T01:13:19;2.37;;;0.70;;
9485;SDS011;4781;48.776;9.200;2022-09-28T01:16:03;1.25;;;0.70;;
9485;SDS011;4781;48.776;9.200;2022-09-28T01:19:02;1.47;;;0.85;;
9485;SDS011;4781;48.776;9.200;2022-09-28T01:25:15;1.98;;;0.78;;
9485;SDS011;4781;48.776;9.200;2022-09-28T01:28:04;0.68;;;0.50;;
9485;SDS011;4781;48.776;9.200;2022-09-28T01:30:51;2.05;;;0.90;;
9485;SDS011;4781;48.776;9.200;2022-09-28T01:33:12;5.12;;;1.00;;
9485;SDS011;4781;48.776;9.200;2022-09-28T01:35:50;1.05;;;0.70;;
9485;SDS011;4781;48.776;9.200;2022-09-28T01:38:27;1.05;;;0.50;;
9485;SDS011;4781;48.776;9.200;2022-09-28T01:41:01;2.75;;;0.68;;
9485;SDS011;4781;48.776;9.200;2022-09-28T01:43:33;1.10;;;0.60;;
9485;SDS011;4781;48.776;9.200;2022-09-28T01:46:28;1.30;;;0.60;;
9485;SDS011;4781;48.776;9.200;2022-09-28T01:49:08;1.02;;;0.70;;
9485;SDS011;4781;48.776;9.200;2022-09-28T01:55:08;6.33;;;0.95;;
9485;SDS011;4781;48.776;9.200;2022-09-28T02:00:30;2.75;;;0.78;;
9485;SDS011;4781;48.776;9.200;2022-09-28T02:03:06;5.20;;;0.85;;
9485;SDS011;4781;48.776;9.200;2022-09-28T02:05:41;5.05;;;0.88;;
9485;SDS011;4781;48.776;9.200;2022-09-28T02:08:29;4.05;;;0.98;;
9485;SDS011;4781;48.776;9.200;2022-09-28T02:11:08;5.45;;;0.95;;
9485;SDS011;4781;48.776;9.200;2022-09-28T02:13:39;2.25;;;0.90;;
9485;SDS011;4781;48.776;9.200;2022-09-28T02:16:16;1.60;;;0.62;;
9485;SDS011;4781;48.776;9.200;2022-09-28T02:19:07;12.20;;;0.95;;
9485;SDS011;4781;48.776;9.200;2022-09-28T02:24:39;4.05;;;1.12;;
9485;SDS011;4781;48.776;9.200;2022-09-28T02:27:33;5.75;;;0.88;;
9485;SDS011;4781;48.776;9.200;2022-09-28T02:30:15;3.25;;;0.82;;
9485;SDS011;4781;48.776;9.200;2022-09-28T02:32:45;1.80;;;0.90;;
9485;SDS011;4781;48.776;9.200;2022-09-28T02:35:34;2.83;;;0.75;;
9485;SDS011;4781;48.776;9.200;2022-09-28T02:38:04;4.12;;;1.05;;
9485;SDS011;4781;48.776;9.200;2022-09-28T02:40:33;4.25;;;0.82;;
9485;SDS011;4781;48.776;9.200;2022-09-28T02:43:23;2.20;;;1.07;;
9485;SDS011;4781;48.776;9.200;2022-09-28T02:48:45;3.85;;;0.80;;
9485;SDS011;4781;48.776;9.200;2022-09-28T02:51:48;3.33;;;1.03;;
9485;SDS011;4781;48.776;9.200;2022-09-28T02:54:32;2.08;;;0.80;;
9485;SDS011;4781;48.776;9.200;2022-09-28T03:00:33;4.30;;;1.17;;
9485;SDS011;4781;48.776;9.200;2022-09-28T03:09:06;1.00;;;0.65;;
9485;SDS011;4781;48.776;9.200;2022-09-28T03:11:42;3.22;;;0.80;;
9485;SDS011;4781;48.776;9.200;2022-09-28T03:14:12;3.45;;;1.00;;
9485;SDS011;4781;48.776;9.200;2022-09-28T03:16:42;2.60;;;0.70;;
9485;SDS011;4781;48.776;9.200;2022-09-28T03:19:11;2.27;;;1.22;;
9485;SDS011;4781;48.776;9.200;2022-09-28T03:21:41;3.12;;;0.80;;
9485;SDS011;4781;48.776;9.200;2022-09-28T03:24:10;1.85;;;0.85;;
9485;SDS011;4781;48.776;9.200;2022-09-28T03:26:38;3.62;;;1.07;;
9485;SDS011;4781;48.776;9.200;2022-09-28T03:29:07;5.20;;;0.80;;
9485;SDS011;4781;48.776;9.200;2022-09-28T03:31:35;1.10;;;0.62;;
9485;SDS011;4781;48.776;9.200;2022-09-28T03:34:03;3.55;;;1.05;;
9485;SDS011;4781;48.776;9.200;2022-09-28T03:36:32;1.60;;;0.82;;
9485;SDS011;4781;48.776;9.200;2022-09-28T03:39:00;2.42;;;0.70;;
9485;SDS011;4781;48.776;9.200;2022-09-28T03:41:29;2.05;;;0.62;;
9485;SDS011;4781;48.776;9.200;2022-09-28T03:43:57;6.50;;;0.80;;
9485;SDS011;4781;48.776;9.200;2022-09-28T03:46:26;5.12;;;1.30;;
9485;SDS011;4781;48.776;9.200;2022-09-28T03:48:55;2.05;;;0.60;;
9485;SDS011;4781;48.776;9.200;2022-09-28T03:51:27;3.05;;;0.90;;
9485;SDS011;4781;48.776;9.200;2022-09-28T03:53:54;2.58;;;0.95;;
9485;SDS011;4781;48.776;9.200;2022-09-28T03:56:22;2.40;;;0.80;;
9485;SDS011;4781;48.776;9.200;2022-09-28T03:58:51;2.22;;;0.72;;
9485;SDS011;4781;48.776;9.200;2022-09-28T04:01:19;5.20;;;0.95;;
9485;SDS011;4781;48.776;9.200;2022-09-28T04:03:51;2.12;;;0.90;;
9485;SDS011;4781;48.776;9.200;2022-09-28T04:06:24;9.45;;;1.32;;
9485;SDS011;4781;48.776;9.200;2022-09-28T04:08:52;2.45;;;0.75;;
9485;SDS011;4781;48.776;9.200;2022-09-28T04:11:21;2.02;;;0.57;;
9485;SDS011;4781;48.776;9.200;2022-09-28T04:13:49;2.25;;;0.50;;
9485;SDS011;4781;48.776;9.200;2022-09-28T04:16:17;1.82;;;0.55;;
9485;SDS011;4781;48.776;9.200;2022-09-28T04:18:46;1.60;;;0.93;;
9485;SDS011;4781;48.776;9.200;2022-09-28T04:21:15;1.47;;;0.50;;
9485;SDS011;4781;48.776;9.200;2022-09-28T04:23:45;1.67;;;0.75;;
9485;SDS011;4781;48.776;9.200;2022-09-28T04:26:18;1.55;;;0.57;;
9485;SDS011;4781;48.776;9.200;2022-09-28T04:28:51;1.42;;;0.50;;
9485;SDS011;4781;48.776;9.200;2022-09-28T04:31:47;2.85;;;0.62;;
9485;SDS011;4781;48.776;9.200;2022-09-28T04:34:13;2.75;;;0.65;;
9485;SDS011;4781;48.776;9.200;2022-09-28T04:36:44;1.52;;;0.60;;
9485;SDS011;4781;48.776;9.200;2022-09-28T04:39:14;2.95;;;0.70;;
9485;SDS011;4781;48.776;9.200;2022-09-28T04:41:45;1.62;;;0.55;;
9485;SDS011;4781;48.776;9.200;2022-09-28T04:44:15;1.52;;;0.88;;
9485;SDS011;4781;48.776;9.200;2022-09-28T04:46:43;0.68;;;0.40;;
9485;SDS011;4781;48.776;9.200;2022-09-28T04:49:11;1.07;;;0.50;;
9485;SDS011;4781;48.776;9.200;2022-09-28T04:51:40;1.45;;;0.90;;
9485;SDS011;4781;48.776;9.200;2022-09-28T04:54:08;0.60;;;0.45;;
9485;SDS011;4781;48.776;9.200;2022-09-28T04:56:37;1.15;;;0.65;;
9485;SDS011;4781;48.776;9.200;2022-09-28T04:59:06;2.50;;;0.50;;
9485;SDS011;4781;48.776;9.200;2022-09-28T05:01:34;1.15;;;0.65;;
9485;SDS011;4781;48.776;9.200;2022-09-28T05:04:03;4.22;;;0.53;;
9485;SDS011;4781;48.776;9.200;2022-09-28T05:06:31;2.92;;;0.60;;
9485;SDS011;4781;48.776;9.200;2022-09-28T05:09:00;0.80;;;0.60;;
9485;SDS011;4781;48.776;9.200;2022-09-28T05:11:28;2.42;;;0.60;;
9485;SDS011;4781;48.776;9.200;2022-09-28T05:13:56;1.05;;;0.78;;
9485;SDS011;4781;48.776;9.200;2022-09-28T05:16:25;1.25;;;0.65;;
9485;SDS011;4781;48.776;9.200;2022-09-28T05:18:55;3.75;;;0.80;;
9485;SDS011;4781;48.776;9.200;2022-09-28T05:21:23;1.10;;;0.50;;
9485;SDS011;4781;48.776;9.200;2022-09-28T05:23:54;1.10;;;0.47;;
9485;SDS011;4781;48.776;9.200;2022-09-28T05:26:23;1.10;;;0.50;;
9485;SDS011;4781;48.776;9.200;2022-09-28T05:28:51;1.65;;;0.70;;
9485;SDS011;4781;48.776;9.200;2022-09-28T05:31:20;0.55;;;0.40;;
9485;SDS011;4781;48.776;9.200;2022-09-28T05:33:48;2.98;;;0.60;;
9485;SDS011;4781;48.776;9.200;2022-09-28T05:36:18;3.22;;;0.72;;
9485;SDS011;4781;48.776;9.200;2022-09-28T05:38:47;3.35;;;0.75;;
9485;SDS011;4781;48.776;9.200;2022-09-28T05:41:15;0.93;;;0.60;;
9485;SDS011;4781;48.776;9.200;2022-09-28T05:43:44;2.42;;;0.80;;
9485;SDS011;4781;48.776;9.200;2022-09-28T05:46:12;0.82;;;0.50;;
9485;SDS011;4781;48.776;9.200;2022-09-28T05:48:41;1.35;;;0.80;;
9485;SDS011;4781;48.776;9.200;2022-09-28T05:51:09;1.07;;;0.78;;
9485;SDS011;4781;48.776;9.200;2022-09-28T05:53:37;1.52;;;0.60;;
9485;SDS011;4781;48.776;9.200;2022-09-28T05:56:06;0.95;;;0.60;;
9485;SDS011;4781;48.776;9.200;2022-09-28T05:58:34;2.80;;;0.70;;
9485;SDS011;4781;48.776;9.200;2022-09-28T06:01:03;1.75;;;0.90;;
9485;SDS011;4781;48.776;9.200;2022-09-28T06:03:31;1.20;;;0.70;;
9485;SDS011;4781;48.776;9.200;2022-09-28T06:06:00;1.80;;;0.80;;
9485;SDS011;4781;48.776;9.200;2022-09-28T06:08:29;1.02;;;0.60;;
9485;SDS011;4781;48.776;9.200;2022-09-28T06:10:59;2.75;;;0.80;;
9485;SDS011;4781;48.776;9.200;2022-09-28T06:13:28;2.70;;;0.78;;
9485;SDS011;4781;48.776;9.200;2022-09-28T06:15:56;3.30;;;0.75;;
9485;SDS011;4781;48.776;9.200;2022-09-28T06:18:26;2.05;;;0.80;;
9485;SDS011;4781;48.776;9.200;2022-09-28T06:20:54;2.10;;;0.65;;
9485;SDS011;4781;48.776;9.200;2022-09-28T06:23:23;4.12;;;0.70;;
9485;SDS011;4781;48.776;9.200;2022-09-28T06:25:51;1.65;;;0.62;;
9485;SDS011;4781;48.776;9.200;2022-09-28T06:28:19;1.55;;;0.62;;
9485;SDS011;4781;48.776;9.200;2022-09-28T06:30:48;2.15;;;0.60;;
9485;SDS011;4781;48.776;9.200;2022-09-28T06:33:16;1.17;;;0.60;;
9485;SDS011;4781;48.776;9.200;2022-09-28T06:35:45;2.77;;;0.80;;
9485;SDS011;4781;48.776;9.200;2022-09-28T06:38:13;1.55;;;0.90;;
9485;SDS011;4781;48.776;9.200;2022-09-28T06:40:41;4.28;;;0.72;;
9485;SDS011;4781;48.776;9.200;2022-09-28T06:43:11;2.58;;;1.00;;
9485;SDS011;4781;48.776;9.200;2022-09-28T06:45:41;5.55;;;1.15;;
9485;SDS011;4781;48.776;9.200;2022-09-28T06:48:11;1.22;;;0.80;;
9485;SDS011;4781;48.776;9.200;2022-09-28T06:50:41;4.95;;;1.20;;
9485;SDS011;4781;48.776;9.200;2022-09-28T06:53:11;2.65;;;0.93;;
9485;SDS011;4781;48.776;9.200;2022-09-28T06:55:41;3.05;;;1.12;;
9485;SDS011;4781;48.776;9.200;2022-09-28T06:58:14;2.08;;;0.98;;
9485;SDS011;4781;48.776;9.200;2022-09-28T07:00:45;1.60;;;0.80;;
9485;SDS011;4781;48.776;9.200;2022-09-28T07:03:20;2.75;;;1.15;;
9485;SDS011;4781;48.776;9.200;2022-09-28T07:05:49;5.75;;;1.05;;
9485;SDS011;4781;48.776;9.200;2022-09-28T07:08:21;6.30;;;1.52;;
9485;SDS011;4781;48.776;9.200;2022-09-28T07:10:53;2.50;;;0.95;;
9485;SDS011;4781;48.776;9.200;2022-09-28T07:13:25;3.50;;;1.10;;
9485;SDS011;4781;48.776;9.200;2022-09-28T07:15:55;2.60;;;1.35;;
9485;SDS011;4781;48.776;9.200;2022-09-28T07:18:25;1.90;;;1.02;;
9485;SDS011;4781;48.776;9.200;2022-09-28T07:20:54;2.10;;;1.10;;
9485;SDS011;4781;48.776;9.200;2022-09-28T07:23:23;7.75;;;1.20;;
9485;SDS011;4781;48.776;9.200;2022-09-28T07:25:54;6.00;;;1.47;;
9485;SDS011;4781;48.776;9.200;2022-09-28T07:28:23;2.70;;;1.22;;
9485;SDS011;4781;48.776;9.200;2022-09-28T07:30:52;4.95;;;1.72;;
9485;SDS011;4781;48.776;9.200;2022-09-28T07:33:23;6.75;;;1.25;;
9485;SDS011;4781;48.776;9.200;2022-09-28T07:35:53;5.70;;;1.57;;
9485;SDS011;4781;48.776;9.200;2022-09-28T07:38:22;3.05;;;1.52;;
9485;SDS011;4781;48.776;9.200;2022-09-28T07:40:50;4.87;;;1.55;;
9485;SDS011;4781;48.776;9.200;2022-09-28T07:43:39;3.98;;;1.25;;
9485;SDS011;4781;48.776;9.200;2022-09-28T07:46:08;4.17;;;1.45;;
9485;SDS011;4781;48.776;9.200;2022-09-28T07:48:41;3.50;;;1.47;;
9485;SDS011;4781;48.776;9.200;2022-09-28T07:51:10;2.55;;;1.20;;
9485;SDS011;4781;48.776;9.200;2022-09-28T07:53:39;3.42;;;1.60;;
9485;SDS011;4781;48.776;9.200;2022-09-28T07:56:07;3.42;;;1.50;;
9485;SDS011;4781;48.776;9.200;2022-09-28T07:58:37;5.15;;;1.57;;
9485;SDS011;4781;48.776;9.200;2022-09-28T08:01:07;3.92;;;1.40;;
9485;SDS011;4781;48.776;9.200;2022-09-28T08:03:38;3.05;;;1.50;;
9485;SDS011;4781;48.776;9.200;2022-09-28T08:06:10;3.05;;;1.62;;
9485;SDS011;4781;48.776;9.200;2022-09-28T08:08:42;7.97;;;1.45;;
9485;SDS011;4781;48.776;9.200;2022-09-28T08:11:11;6.72;;;1.45;;
9485;SDS011;4781;48.776;9.200;2022-09-28T08:13:44;3.60;;;1.25;;
9485;SDS011;4781;48.776;9.200;2022-09-28T08:16:13;8.25;;;3.80;;
9485;SDS011;4781;48.776;9.200;2022-09-28T08:18:41;6.20;;;1.57;;
9485;SDS011;4781;48.776;9.200;2022-09-28T08:21:09;2.52;;;1.45;;
9485;SDS011;4781;48.776;9.200;2022-09-28T08:23:55;13.40;;;5.87;;
9485;SDS011;4781;48.776;9.200;2022-09-28T08:26:24;8.75;;;3.90;;
9485;SDS011;4781;48.776;9.200;2022-09-28T08:28:53;4.33;;;1.75;;
9485;SDS011;4781;48.776;9.200;2022-09-28T08:31:22;4.53;;;1.85;;
9485;SDS011;4781;48.776;9.200;2022-09-28T08:33:50;4.10;;;1.55;;
9485;SDS011;4781;48.776;9.200;2022-09-28T08:36:19;5.28;;;2.72;;
9485;SDS011;4781;48.776;9.200;2022-09-28T08:38:47;4.28;;;1.60;;
9485;SDS011;4781;48.776;9.200;2022-09-28T08:44:18;3.20;;;1.62;;
9485;SDS011;4781;48.776;9.200;2022-09-28T08:47:01;4.62;;;2.45;;
9485;SDS011;4781;48.776;9.200;2022-09-28T08:49:39;6.83;;;1.87;;
9485;SDS011;4781;48.776;9.200;2022-09-28T08:52:12;5.58;;;2.85;;
9485;SDS011;4781;48.776;9.200;2022-09-28T08:54:45;4.85;;;2.12;;
9485;SDS011;4781;48.776;9.200;2022-09-28T08:57:18;4.22;;;1.77;;
9485;SDS011;4781;48.776;9.200;2022-09-28T08:59:54;5.17;;;1.70;;
9485;SDS011;4781;48.776;9.200;2022-09-28T09:02:28;7.20;;;2.00;;
9485;SDS011;4781;48.776;9.200;2022-09-28T09:05:09;4.55;;;1.50;;
9485;SDS011;4781;48.776;9.200;2022-09-28T09:10:42;3.05;;;1.20;;
9485;SDS011;4781;48.776;9.200;2022-09-28T09:16:31;3.52;;;1.72;;
9485;SDS011;4781;48.776;9.200;2022-09-28T09:19:39;3.22;;;1.52;;
9485;SDS011;4781;48.776;9.200;2022-09-28T09:25:01;2.90;;;1.12;;
9485;SDS011;4781;48.776;9.200;2022-09-28T09:30:45;2.87;;;1.30;;
9485;SDS011;4781;48.776;9.200;2022-09-28T09:33:37;3.52;;;1.65;;
9485;SDS011;4781;48.776;9.200;2022-09-28T09:36:24;2.45;;;1.50;;
9485;SDS011;4781;48.776;9.200;2022-09-28T09:39:03;4.85;;;2.10;;
9485;SDS011;4781;48.776;9.200;2022-09-28T09:42:06;5.75;;;1.67;;
9485;SDS011;4781;48.776;9.200;2022-09-28T09:44:48;5.07;;;1.70;;
9485;SDS011;4781;48.776;9.200;2022-09-28T09:47:30;5.37;;;1.60;;
9485;SDS011;4781;48.776;9.200;2022-09-28T09:50:16;3.40;;;1.52;;
9485;SDS011;4781;48.776;9.200;2022-09-28T09:55:58;5.35;;;1.50;;
9485;SDS011;4781;48.776;9.200;2022-09-28T09:58:35;3.42;;;1.67;;
9485;SDS011;4781;48.776;9.200;2022-09-28T10:01:12;3.47;;;1.57;;
9485;SDS011;4781;48.776;9.200;2022-09-28T10:03:44;6.40;;;1.65;;
9485;SDS011;4781;48.776;9.200;2022-09-28T10:06:15;4.80;;;1.77;;
9485;SDS011;4781;48.776;9.200;2022-09-28T10:09:00;3.05;;;1.47;;
9485;SDS011;4781;48.776;9.200;2022-09-28T10:14:17;4.15;;;1.82;;
9485;SDS011;4781;48.776;9.200;2022-09-28T10:16:50;4.53;;;1.82;;
9485;SDS011;4781;48.776;9.200;2022-09-28T10:19:24;4.10;;;1.75;;
9485;SDS011;4781;48.776;9.200;2022-09-28T10:22:02;4.55;;;1.80;;
9485;SDS011;4781;48.776;9.200;2022-09-28T10:24:37;5.03;;;1.40;;
9485;SDS011;4781;48.776;9.200;2022-09-28T10:27:35;5.62;;;1.62;;
9485;SDS011;4781;48.776;9.200;2022-09-28T10:32:36;4.35;;;1.65;;
9485;SDS011;4781;48.776;9.200;2022-09-28T10:40:45;2.67;;;1.42;;
9485;SDS011;4781;48.776;9.200;2022-09-28T10:43:28;4.28;;;1.40;;
9485;SDS011;4781;48.776;9.200;2022-09-28T10:51:43;5.17;;;1.32;;
9485;SDS011;4781;48.776;9.200;2022-09-28T10:54:18;2.25;;;1.00;;
9485;SDS011;4781;48.776;9.200;2022-09-28T10:56:51;6.72;;;1.77;;
9485;SDS011;4781;48.776;9.200;2022-09-28T11:02:01;2.67;;;1.10;;
9485;SDS011;4781;48.776;9.200;2022-09-28T11:04:52;3.15;;;1.22;;
9485;SDS011;4781;48.776;9.200;2022-09-28T11:07:25;4.53;;;1.60;;
9485;SDS011;4781;48.776;9.200;2022-09-28T11:09:56;2.47;;;1.37;;
9485;SDS011;4781;48.776;9.200;2022-09-28T11:12:27;3.37;;;1.32;;
9485;SDS011;4781;48.776;9.200;2022-09-28T11:15:02;2.50;;;1.22;;
9485;SDS011;4781;48.776;9.200;2022-09-28T11:17:37;3.05;;;1.30;;
9485;SDS011;4781;48.776;9.200;2022-09-28T11:23:00;5.35;;;1.65;;
9485;SDS011;4781;48.776;9.200;2022-09-28T11:26:24;6.92;;;1.22;;
9485;SDS011;4781;48.776;9.200;2022-09-28T11:28:34;2.77;;;1.17;;
9485;SDS011;4781;48.776;9.200;2022-09-28T11:31:03;3.60;;;1.42;;
9485;SDS011;4781;48.776;9.200;2022-09-28T11:33:34;5.05;;;1.85;;
9485;SDS011;4781;48.776;9.200;2022-09-28T11:45:02;3.70;;;1.00;;
9485;SDS011;4781;48.776;9.200;2022-09-28T11:47:50;2.08;;;1.00;;
9485;SDS011;4781;48.776;9.200;2022-09-28T11:56:16;3.17;;;1.22;;
9485;SDS011;4781;48.776;9.200;2022-09-28T11:58:52;2.25;;;1.17;;
9485;SDS011;4781;48.776;9.200;2022-09-28T12:04:27;1.85;;;0.90;;
9485;SDS011;4781;48.776;9.200;2022-09-28T12:07:03;6.55;;;1.12;;
9485;SDS011;4781;48.776;9.200;2022-09-28T12:15:40;3.27;;;0.88;;
9485;SDS011;4781;48.776;9.200;2022-09-28T12:18:21;5.72;;;0.93;;
9485;SDS011;4781;48.776;9.200;2022-09-28T12:21:08;3.65;;;0.90;;
9485;SDS011;4781;48.776;9.200;2022-09-28T12:23:46;2.55;;;0.90;;
9485;SDS011;4781;48.776;9.200;2022-09-28T12:26:23;3.92;;;1.30;;
9485;SDS011;4781;48.776;9.200;2022-09-28T12:29:01;5.60;;;1.00;;
9485;SDS011;4781;48.776;9.200;2022-09-28T12:31:31;1.73;;;0.80;;
9485;SDS011;4781;48.776;9.200;2022-09-28T12:34:09;4.80;;;1.17;;
9485;SDS011;4781;48.776;9.200;2022-09-28T12:36:48;2.83;;;0.88;;
9485;SDS011;4781;48.776;9.200;2022-09-28T12:39:37;3.08;;;0.78;;
9485;SDS011;4781;48.776;9.200;2022-09-28T12:42:26;2.55;;;0.90;;
9485;SDS011;4781;48.776;9.200;2022-09-28T12:45:18;1.60;;;0.62;;
9485;SDS011;4781;48.776;9.200;2022-09-28T12:48:19;2.77;;;0.88;;
9485;SDS011;4781;48.776;9.200;2022-09-28T13:00:10;4.50;;;0.80;;
9485;SDS011;4781;48.776;9.200;2022-09-28T13:15:02;2.02;;;0.82;;
9485;SDS011;4781;48.776;9.200;2022-09-28T13:17:57;1.75;;;0.60;;
9485;SDS011;4781;48.776;9.200;2022-09-28T13:23:43;3.70;;;0.72;;
9485;SDS011;4781;48.776;9.200;2022-09-28T13:26:36;2.35;;;0.60;;
9485;SDS011;4781;48.776;9.200;2022-09-28T13:31:53;3.58;;;0.85;;
9485;SDS011;4781;48.776;9.200;2022-09-28T13:34:25;1.57;;;0.98;;
9485;SDS011;4781;48.776;9.200;2022-09-28T13:39:59;2.75;;;0.82;;
9485;SDS011;4781;48.776;9.200;2022-09-28T13:42:34;2.22;;;0.90;;
9485;SDS011;4781;48.776;9.200;2022-09-28T13:48:01;1.57;;;0.75;;
9485;SDS011;4781;48.776;9.200;2022-09-28T13:56:24;1.65;;;0.70;;
9485;SDS011;4781;48.776;9.200;2022-09-28T14:05:00;3.08;;;0.88;;
9485;SDS011;4781;48.776;9.200;2022-09-28T14:16:34;1.82;;;1.05;;
